OKA weather

Naha Airport
Naha, Okinawa Prefecture, Japan

Public forecast

Using degrees Celsius for public forecast. Weather courtesy of forecast.io.

Current aviation weather report (METAR) for Naha Airport

Retrieved 2019/10/24 04:30 UTC (0 seconds ago):

ROAH 240430Z 31018KT 9999 BKN023 27/21 Q1011

Aviation forecast (TAF) for Naha Airport

Retrieved 2019-10-24 00:31 UTC (4 hours ago):

TAF ROAH 232305Z 2400/2506 34017KT 9999 SCT030